createdAt,value
2022-11-07T00:02:29.722Z,94.50
2022-11-07T00:05:16.115Z,94.20
2022-11-07T00:08:01.511Z,94.30
2022-11-07T00:10:47.429Z,94.40
2022-11-07T00:13:33.550Z,94.30
2022-11-07T00:16:19.209Z,94.40
2022-11-07T00:19:04.638Z,94.20
2022-11-07T00:21:51.548Z,94.00
2022-11-07T00:24:46.063Z,93.80
2022-11-07T00:27:31.663Z,93.90
2022-11-07T00:30:17.219Z,93.80
2022-11-07T00:33:03.076Z,93.80
2022-11-07T00:35:48.403Z,93.80
2022-11-07T00:38:34.878Z,93.50
2022-11-07T00:41:21.617Z,93.60
2022-11-07T00:44:07.274Z,93.80
2022-11-07T00:46:52.942Z,93.90
2022-11-07T00:49:38.494Z,93.90
2022-11-07T00:52:23.799Z,94.20
2022-11-07T00:55:09.777Z,94.40
2022-11-07T00:57:55.886Z,94.20
2022-11-07T01:00:41.667Z,94.20
2022-11-07T01:03:45.569Z,94.10
2022-11-07T01:06:34.014Z,94.00
2022-11-07T01:09:21.362Z,93.70
2022-11-07T01:12:07.066Z,93.80
2022-11-07T01:14:52.877Z,93.90
2022-11-07T01:17:40.771Z,93.90
2022-11-07T01:20:25.975Z,93.80
2022-11-07T01:23:11.909Z,93.70
2022-11-07T01:25:57.589Z,93.60
2022-11-07T01:28:43.054Z,93.70
2022-11-07T01:31:31.214Z,94.20
2022-11-07T01:34:17.697Z,94.20
2022-11-07T01:37:04.075Z,94.60
2022-11-07T01:39:49.741Z,94.20
2022-11-07T01:42:34.887Z,94.40
2022-11-07T01:45:31.052Z,94.70
2022-11-07T01:48:16.757Z,95.10
2022-11-07T01:51:02.595Z,95.30
2022-11-07T01:53:48.872Z,95.50
2022-11-07T01:56:37.591Z,95.50
2022-11-07T01:59:26.774Z,95.50
2022-11-07T02:02:12.548Z,95.80
2022-11-07T02:05:00.224Z,95.90
2022-11-07T02:07:46.447Z,96.00
2022-11-07T02:10:34.131Z,95.90
2022-11-07T02:13:27.771Z,95.90
2022-11-07T02:16:13.534Z,95.90
2022-11-07T02:19:00.765Z,95.70
2022-11-07T02:22:12.441Z,96.10
2022-11-07T02:25:04.141Z,95.60
2022-11-07T02:27:53.683Z,95.40
2022-11-07T02:30:39.613Z,95.40
2022-11-07T02:33:24.909Z,95.20
2022-11-07T02:36:21.114Z,95.30
2022-11-07T02:39:06.962Z,95.20
2022-11-07T02:41:54.744Z,95.20
2022-11-07T02:44:40.239Z,95.20
2022-11-07T02:47:26.655Z,95.00
2022-11-07T02:50:14.862Z,94.80
2022-11-07T02:53:00.643Z,94.40
2022-11-07T02:55:46.048Z,94.70
2022-11-07T02:58:31.451Z,95.00
2022-11-07T03:01:16.826Z,95.00
2022-11-07T03:04:08.890Z,95.10
2022-11-07T03:06:55.431Z,95.30
2022-11-07T03:09:40.898Z,95.40
2022-11-07T03:12:26.346Z,95.40
2022-11-07T03:15:17.918Z,95.40
2022-11-07T03:18:03.594Z,95.30
2022-11-07T03:20:48.995Z,95.30
2022-11-07T03:23:36.057Z,95.20
2022-11-07T03:26:21.578Z,95.30
2022-11-07T03:29:06.827Z,95.00
2022-11-07T03:31:55.009Z,94.90
2022-11-07T03:34:40.178Z,94.80
2022-11-07T03:37:25.588Z,94.90
2022-11-07T03:40:11.445Z,94.80
2022-11-07T03:42:57.098Z,94.40
2022-11-07T03:45:42.451Z,94.40
2022-11-07T03:48:28.113Z,94.70
2022-11-07T03:51:13.573Z,94.50
2022-11-07T03:53:59.098Z,94.60
2022-11-07T03:56:44.570Z,94.60
2022-11-07T03:59:30.295Z,94.60
2022-11-07T04:02:16.087Z,94.70
2022-11-07T04:05:01.341Z,94.60
2022-11-07T04:07:46.765Z,94.40
2022-11-07T04:10:32.172Z,94.40
2022-11-07T04:13:39.241Z,94.50
2022-11-07T04:16:43.350Z,94.60
2022-11-07T04:19:28.732Z,94.50
2022-11-07T04:22:14.041Z,94.50
2022-11-07T04:24:59.214Z,94.40
2022-11-07T04:27:45.073Z,94.50
2022-11-07T04:30:30.593Z,94.40
2022-11-07T04:33:16.956Z,94.30
2022-11-07T04:36:02.462Z,94.20
2022-11-07T04:38:48.073Z,94.20
2022-11-07T04:41:34.005Z,94.10
2022-11-07T04:44:19.638Z,94.10
2022-11-07T04:47:07.855Z,94.20
2022-11-07T04:49:53.442Z,94.20
2022-11-07T04:52:38.974Z,94.10
2022-11-07T04:55:26.529Z,94.00
2022-11-07T04:58:14.734Z,94.20
2022-11-07T05:00:59.979Z,94.10
2022-11-07T05:03:45.536Z,94.10
2022-11-07T05:06:46.159Z,94.00
2022-11-07T05:09:31.727Z,93.90
2022-11-07T05:12:17.390Z,93.90
2022-11-07T05:15:02.909Z,93.90
2022-11-07T05:17:48.796Z,93.70
2022-11-07T05:20:37.193Z,93.70
2022-11-07T05:23:22.701Z,93.70
2022-11-07T05:26:09.437Z,93.60
2022-11-07T05:28:54.834Z,93.70
2022-11-07T05:31:40.454Z,93.50
2022-11-07T05:34:26.149Z,93.60
2022-11-07T05:37:13.023Z,93.80
2022-11-07T05:39:58.390Z,93.80
2022-11-07T05:42:47.402Z,93.80
2022-11-07T05:45:37.734Z,93.90
2022-11-07T05:48:22.836Z,93.80
2022-11-07T05:51:08.929Z,93.70
2022-11-07T05:53:55.461Z,93.70
2022-11-07T05:56:43.551Z,93.60
2022-11-07T05:59:29.491Z,93.70
2022-11-07T06:02:14.905Z,93.80
2022-11-07T06:05:00.697Z,93.80
2022-11-07T06:07:46.058Z,93.90
2022-11-07T06:10:38.550Z,93.90
2022-11-07T06:13:24.329Z,93.90
2022-11-07T06:16:09.935Z,93.80
2022-11-07T06:18:55.316Z,93.70
2022-11-07T06:21:41.416Z,93.40
2022-11-07T06:24:27.086Z,93.10
2022-11-07T06:27:12.579Z,93.00
2022-11-07T06:29:57.854Z,93.00
2022-11-07T06:32:46.402Z,93.00
2022-11-07T06:35:31.757Z,93.10
2022-11-07T06:38:17.515Z,92.70
2022-11-07T06:41:07.944Z,93.10
2022-11-07T06:43:53.498Z,92.90
2022-11-07T06:46:38.987Z,92.90
2022-11-07T06:49:24.627Z,92.80
2022-11-07T06:52:10.149Z,92.70
2022-11-07T06:54:58.458Z,92.80
2022-11-07T06:57:43.978Z,92.90
2022-11-07T07:00:31.655Z,92.80
2022-11-07T07:03:17.522Z,92.80
2022-11-07T07:06:05.190Z,92.60
2022-11-07T07:08:50.643Z,92.50
2022-11-07T07:11:37.646Z,92.60
2022-11-07T07:14:23.071Z,92.50
2022-11-07T07:17:09.837Z,92.60
2022-11-07T07:19:54.987Z,92.60
2022-11-07T07:22:40.931Z,92.60
2022-11-07T07:25:26.705Z,92.70
2022-11-07T07:28:12.130Z,92.70
2022-11-07T07:31:20.638Z,92.70
2022-11-07T07:34:06.246Z,92.70
2022-11-07T07:36:53.919Z,92.80
2022-11-07T07:39:39.146Z,92.70
2022-11-07T07:42:24.714Z,92.50
2022-11-07T07:45:12.261Z,92.60
2022-11-07T07:48:02.693Z,92.70
2022-11-07T07:50:49.706Z,92.70
2022-11-07T07:53:34.905Z,92.50
2022-11-07T07:56:21.065Z,92.30
2022-11-07T07:59:06.736Z,92.30
2022-11-07T08:01:56.483Z,92.20
2022-11-07T08:04:45.723Z,92.00
2022-11-07T08:07:31.682Z,92.10
2022-11-07T08:13:25.445Z,92.10
2022-11-07T08:16:11.113Z,91.90
2022-11-07T08:18:56.553Z,91.90
2022-11-07T08:21:44.312Z,91.70
2022-11-07T08:24:31.231Z,91.50
2022-11-07T08:27:16.537Z,91.50
2022-11-07T08:30:02.525Z,91.40
2022-11-07T08:32:48.309Z,91.40
2022-11-07T08:35:38.121Z,91.10
2022-11-07T08:38:34.064Z,91.20
2022-11-07T08:41:22.320Z,91.10
2022-11-07T08:44:09.633Z,91.00
2022-11-07T08:46:55.377Z,91.00
2022-11-07T08:49:40.471Z,90.70
2022-11-07T08:52:26.032Z,90.90
2022-11-07T08:55:11.533Z,90.90
2022-11-07T08:58:10.489Z,91.00
2022-11-07T09:00:56.023Z,91.10
2022-11-07T09:03:48.577Z,91.10
2022-11-07T09:06:34.398Z,91.50
2022-11-07T09:09:19.833Z,90.80
2022-11-07T09:12:05.165Z,90.60
2022-11-07T09:14:50.779Z,90.50
2022-11-07T09:17:36.087Z,90.40
2022-11-07T09:20:21.374Z,90.50
2022-11-07T09:23:07.058Z,90.40
2022-11-07T09:25:52.518Z,90.50
2022-11-07T09:28:38.304Z,90.50
2022-11-07T09:31:26.308Z,90.50
2022-11-07T09:34:11.645Z,90.50
2022-11-07T09:36:57.194Z,90.60
2022-11-07T09:39:42.782Z,90.60
2022-11-07T09:42:41.769Z,90.80
2022-11-07T09:45:29.897Z,90.70
2022-11-07T09:48:23.456Z,90.70
2022-11-07T09:51:15.208Z,91.00
2022-11-07T09:54:08.121Z,91.00
2022-11-07T09:56:55.870Z,91.00
2022-11-07T09:59:51.697Z,90.90
2022-11-07T10:02:43.834Z,90.90
2022-11-07T10:05:59.252Z,91.20
2022-11-07T10:08:48.922Z,91.00
2022-11-07T10:11:51.522Z,91.00
2022-11-07T10:15:01.563Z,91.00
2022-11-07T10:17:49.594Z,91.00
2022-11-07T10:21:36.677Z,90.50
2022-11-07T10:24:41.637Z,90.10
2022-11-07T10:27:32.800Z,89.40
2022-11-07T10:30:21.157Z,89.20
2022-11-07T10:33:31.105Z,88.00
2022-11-07T10:36:25.162Z,88.10
2022-11-07T10:39:19.603Z,88.10
2022-11-07T10:42:14.168Z,88.50
2022-11-07T10:44:59.866Z,88.30
2022-11-07T10:48:03.707Z,88.20
2022-11-07T10:50:56.263Z,88.70
2022-11-07T10:53:47.926Z,88.40
2022-11-07T10:56:50.063Z,88.50
2022-11-07T10:59:39.309Z,88.90
2022-11-07T11:02:31.524Z,88.60
2022-11-07T11:05:23.912Z,89.40
2022-11-07T11:08:21.660Z,89.40
2022-11-07T11:11:15.400Z,89.10
2022-11-07T11:14:03.674Z,89.50
2022-11-07T11:16:54.850Z,89.50
2022-11-07T11:19:48.219Z,90.00
2022-11-07T11:22:42.107Z,89.80
2022-11-07T11:25:28.276Z,89.80
2022-11-07T11:28:33.557Z,89.50
2022-11-07T11:31:29.629Z,89.20
2022-11-07T11:34:49.510Z,88.70
2022-11-07T11:37:38.747Z,88.10
2022-11-07T11:40:31.463Z,87.60
2022-11-07T11:43:23.992Z,87.60
2022-11-07T11:46:36.836Z,87.60
2022-11-07T11:49:42.665Z,87.90
2022-11-07T11:52:34.544Z,87.50
2022-11-07T11:55:23.757Z,87.70
2022-11-07T11:58:38.740Z,87.50
2022-11-07T12:01:29.828Z,87.50
2022-11-07T12:04:21.476Z,87.70
2022-11-07T12:07:36.226Z,87.40
2022-11-07T12:10:40.102Z,87.20
2022-11-07T12:13:53.846Z,87.20
2022-11-07T12:16:46.863Z,87.30
2022-11-07T12:20:00.707Z,87.30
2022-11-07T12:23:10.998Z,87.20
2022-11-07T12:26:10.673Z,87.10
2022-11-07T12:29:39.883Z,87.90
2022-11-07T12:32:42.022Z,88.20
2022-11-07T12:35:50.551Z,88.50
2022-11-07T12:39:06.408Z,88.90
2022-11-07T12:41:58.919Z,89.20
2022-11-07T12:45:02.912Z,89.00
2022-11-07T12:48:12.875Z,89.60
2022-11-07T12:51:17.815Z,89.50
2022-11-07T12:54:33.614Z,90.10
2022-11-07T12:57:24.429Z,89.90
2022-11-07T13:00:29.195Z,89.70
2022-11-07T13:03:23.949Z,89.90
2022-11-07T13:06:31.420Z,89.80
2022-11-07T13:09:38.708Z,89.90
2022-11-07T13:12:40.506Z,89.60
2022-11-07T13:15:26.684Z,89.50
2022-11-07T13:18:30.081Z,90.00
2022-11-07T13:21:15.323Z,89.30
2022-11-07T13:24:06.188Z,89.00
2022-11-07T13:26:51.950Z,88.90
2022-11-07T13:29:40.393Z,88.60
2022-11-07T13:32:26.000Z,88.80
2022-11-07T13:35:34.635Z,88.80
2022-11-07T13:38:23.196Z,88.60
2022-11-07T13:41:08.723Z,88.00
2022-11-07T13:44:03.598Z,87.10
2022-11-07T13:46:55.867Z,86.50
2022-11-07T13:49:45.863Z,86.40
2022-11-07T13:52:54.428Z,85.80
2022-11-07T13:55:54.133Z,86.10
2022-11-07T13:58:41.924Z,86.10
2022-11-07T14:01:27.368Z,86.10
2022-11-07T14:04:18.590Z,86.40
2022-11-07T14:07:04.695Z,86.70
2022-11-07T14:09:56.187Z,87.00
2022-11-07T14:12:41.715Z,87.50
2022-11-07T14:15:27.397Z,87.70
2022-11-07T14:18:16.335Z,88.20
2022-11-07T14:21:02.234Z,88.50
2022-11-07T14:23:48.045Z,89.00
2022-11-07T14:26:34.441Z,89.40
2022-11-07T14:29:23.655Z,89.80
2022-11-07T14:32:17.180Z,90.20
2022-11-07T14:35:10.801Z,90.40
2022-11-07T14:37:58.412Z,90.30
2022-11-07T14:40:47.032Z,90.40
2022-11-07T14:43:33.627Z,90.40
2022-11-07T14:46:23.983Z,90.50
2022-11-07T14:49:23.709Z,90.60
2022-11-07T14:52:41.214Z,90.40
2022-11-07T14:55:29.813Z,90.60
2022-11-07T14:58:18.975Z,90.90
2022-11-07T15:01:07.588Z,91.30
2022-11-07T15:03:57.524Z,91.60
2022-11-07T15:06:44.371Z,91.70
2022-11-07T15:09:33.831Z,91.90
2022-11-07T15:12:32.893Z,92.50
2022-11-07T15:15:38.382Z,92.40
2022-11-07T15:18:28.200Z,92.50
2022-11-07T15:21:29.079Z,92.60
2022-11-07T15:24:45.195Z,92.70
2022-11-07T15:27:42.326Z,92.90
2022-11-07T15:30:32.229Z,93.10
2022-11-07T15:33:18.651Z,93.30
2022-11-07T15:36:04.505Z,93.40
2022-11-07T15:38:51.519Z,93.40
2022-11-07T15:41:37.173Z,93.80
2022-11-07T15:44:22.457Z,93.40
2022-11-07T15:47:14.213Z,93.40
2022-11-07T15:49:59.817Z,93.40
2022-11-07T15:52:47.281Z,93.50
2022-11-07T15:55:36.307Z,93.60
2022-11-07T15:58:24.052Z,93.60
2022-11-07T16:01:09.984Z,93.50
2022-11-07T16:03:55.958Z,93.60
2022-11-07T16:06:46.003Z,93.50
2022-11-07T16:09:33.681Z,93.40
2022-11-07T16:12:19.622Z,93.30
2022-11-07T16:15:05.926Z,93.20
2022-11-07T16:17:51.101Z,93.30
2022-11-07T16:20:36.874Z,93.20
2022-11-07T16:23:22.365Z,92.90
2022-11-07T16:26:14.384Z,93.30
2022-11-07T16:29:02.740Z,92.90
2022-11-07T16:31:57.279Z,92.70
2022-11-07T16:34:42.546Z,92.70
2022-11-07T16:37:33.626Z,92.80
2022-11-07T16:40:20.116Z,92.60
2022-11-07T16:43:05.599Z,92.40
2022-11-07T16:45:54.099Z,92.40
2022-11-07T16:48:39.731Z,92.40
2022-11-07T16:51:25.540Z,92.10
2022-11-07T16:54:11.565Z,92.10
2022-11-07T16:56:57.245Z,92.00
2022-11-07T16:59:51.012Z,91.90
2022-11-07T17:02:36.417Z,91.80
2022-11-07T17:05:21.931Z,91.70
2022-11-07T17:08:19.907Z,91.70
2022-11-07T17:11:05.866Z,91.70
2022-11-07T17:13:51.431Z,91.70
2022-11-07T17:16:37.458Z,91.70
2022-11-07T17:19:27.521Z,91.70
2022-11-07T17:22:14.405Z,91.50
2022-11-07T17:24:59.789Z,91.50
2022-11-07T17:27:46.083Z,91.40
2022-11-07T17:30:31.385Z,91.40
2022-11-07T17:33:17.050Z,91.30
2022-11-07T17:36:04.668Z,91.20
2022-11-07T17:39:01.330Z,91.20
2022-11-07T17:41:49.079Z,90.90
2022-11-07T17:44:34.797Z,91.00
2022-11-07T17:47:31.400Z,91.00
2022-11-07T17:50:18.877Z,91.00
2022-11-07T17:53:04.305Z,90.90
2022-11-07T17:55:50.568Z,90.90
2022-11-07T17:58:35.980Z,90.80
2022-11-07T18:01:23.932Z,90.80
2022-11-07T18:04:14.434Z,90.70
2022-11-07T18:06:59.795Z,90.70
2022-11-07T18:09:50.245Z,90.70
2022-11-07T18:12:38.250Z,90.60
2022-11-07T18:15:23.818Z,90.60
2022-11-07T18:18:14.858Z,90.50
2022-11-07T18:21:00.436Z,90.50
2022-11-07T18:23:45.969Z,90.60
2022-11-07T18:26:31.899Z,90.70
2022-11-07T18:29:20.417Z,90.80
2022-11-07T18:32:06.742Z,90.80
2022-11-07T18:34:52.430Z,91.00
2022-11-07T18:37:37.618Z,91.10
2022-11-07T18:40:23.117Z,91.20
2022-11-07T18:43:11.823Z,91.30
2022-11-07T18:45:58.097Z,91.10
2022-11-07T18:48:43.552Z,91.10
2022-11-07T18:51:28.834Z,91.30
2022-11-07T18:54:14.284Z,91.10
2022-11-07T18:56:59.754Z,91.30
2022-11-07T18:59:46.195Z,91.20
2022-11-07T19:02:33.688Z,91.50
2022-11-07T19:05:20.208Z,91.30
2022-11-07T19:08:05.865Z,91.30
2022-11-07T19:10:51.054Z,91.40
2022-11-07T19:13:38.511Z,91.40
2022-11-07T19:16:24.007Z,91.30
2022-11-07T19:19:09.572Z,91.40
2022-11-07T19:21:57.245Z,91.40
2022-11-07T19:24:42.703Z,91.40
2022-11-07T19:27:35.043Z,91.40
2022-11-07T19:30:20.613Z,91.30
2022-11-07T19:33:08.350Z,91.40
2022-11-07T19:36:01.947Z,91.40
2022-11-07T19:38:51.227Z,91.30
2022-11-07T19:41:39.806Z,91.30
2022-11-07T19:44:25.270Z,91.10
2022-11-07T19:47:10.697Z,91.10
2022-11-07T19:49:56.227Z,91.50
2022-11-07T19:52:47.387Z,91.10
2022-11-07T19:55:32.975Z,91.10
2022-11-07T19:58:18.739Z,91.10
2022-11-07T20:01:15.862Z,91.10
2022-11-07T20:04:02.223Z,91.00
2022-11-07T20:06:50.435Z,91.00
2022-11-07T20:09:35.898Z,91.00
2022-11-07T20:12:21.692Z,91.00
2022-11-07T20:15:07.770Z,91.00
2022-11-07T20:17:56.394Z,91.00
2022-11-07T20:20:41.874Z,90.90
2022-11-07T20:23:27.477Z,91.00
2022-11-07T20:26:16.592Z,90.80
2022-11-07T20:29:02.658Z,90.80
2022-11-07T20:31:49.666Z,90.70
2022-11-07T20:34:35.277Z,90.50
2022-11-07T20:37:21.739Z,90.40
2022-11-07T20:40:08.139Z,90.30
2022-11-07T20:42:53.542Z,90.30
2022-11-07T20:45:38.975Z,90.10
2022-11-07T20:48:24.432Z,90.10
2022-11-07T20:51:17.627Z,90.10
2022-11-07T20:54:03.642Z,90.00
2022-11-07T20:56:49.273Z,89.60
2022-11-07T20:59:35.192Z,89.90
2022-11-07T21:02:20.399Z,89.70
2022-11-07T21:05:22.171Z,89.30
2022-11-07T21:08:07.634Z,89.30
2022-11-07T21:10:53.651Z,89.30
2022-11-07T21:13:39.537Z,89.50
2022-11-07T21:16:26.611Z,89.40
2022-11-07T21:19:14.653Z,89.30
2022-11-07T21:22:00.222Z,89.20
2022-11-07T21:24:50.151Z,89.00
2022-11-07T21:27:36.933Z,89.20
2022-11-07T21:30:25.295Z,89.10
2022-11-07T21:33:11.667Z,89.20
2022-11-07T21:35:57.030Z,88.80
2022-11-07T21:38:44.833Z,88.70
2022-11-07T21:41:30.666Z,88.90
2022-11-07T21:44:15.963Z,89.00
2022-11-07T21:47:01.409Z,88.90
2022-11-07T21:49:49.669Z,88.60
2022-11-07T21:52:34.878Z,88.70
2022-11-07T21:55:20.772Z,89.00
2022-11-07T21:58:06.134Z,89.10
2022-11-07T22:00:51.726Z,89.10
2022-11-07T22:04:04.729Z,89.40
2022-11-07T22:06:45.102Z,89.50
2022-11-07T22:09:36.852Z,89.60
2022-11-07T22:12:22.336Z,89.70
2022-11-07T22:15:08.170Z,89.50
2022-11-07T22:17:54.652Z,89.80
2022-11-07T22:20:40.280Z,89.90
2022-11-07T22:23:25.876Z,90.00
2022-11-07T22:26:14.135Z,90.00
2022-11-07T22:28:59.864Z,89.90
2022-11-07T22:31:45.574Z,90.30
2022-11-07T22:34:31.627Z,89.80
2022-11-07T22:37:19.168Z,89.80
2022-11-07T22:40:05.728Z,89.60
2022-11-07T22:42:51.336Z,90.20
2022-11-07T22:45:41.150Z,89.60
2022-11-07T22:48:27.793Z,89.70
2022-11-07T22:51:34.873Z,89.80
2022-11-07T22:54:20.572Z,90.00
2022-11-07T22:57:06.548Z,90.00
2022-11-07T22:59:52.134Z,90.00
2022-11-07T23:02:37.695Z,90.00
2022-11-07T23:05:23.518Z,90.10
2022-11-07T23:08:09.293Z,90.20
2022-11-07T23:11:40.232Z,90.20
2022-11-07T23:14:07.787Z,90.30
2022-11-07T23:16:57.176Z,90.30
2022-11-07T23:19:45.023Z,90.40
2022-11-07T23:22:32.399Z,90.40
2022-11-07T23:25:18.187Z,90.60
2022-11-07T23:28:07.380Z,90.80
2022-11-07T23:30:53.592Z,90.70
2022-11-07T23:33:39.663Z,90.90
2022-11-07T23:36:25.663Z,91.00
2022-11-07T23:39:19.734Z,91.10
2022-11-07T23:42:05.199Z,91.40
2022-11-07T23:45:08.762Z,91.50
2022-11-07T23:48:12.742Z,91.60
2022-11-07T23:51:03.379Z,91.60
2022-11-07T23:54:07.123Z,91.70
2022-11-07T23:56:52.229Z,91.90
2022-11-07T23:59:57.353Z,91.90
